Time;durP1;ratioP1;P1;durP2;ratioP2;P2;SDS_P1;SDS_P2;PMS_P1;PMS_P2;Temp;Humidity;BMP_temperature;BMP_pressure;BME280_temperature;BME280_humidity;BME280_pressure;Samples;Min_cycle;Max_cycle;Signal;HPM_P1;HPM_P2
2021/03/22 00:00:59;;;;;;;4.07;1.45;;;18.00;51.20;;;;;;4877924;29;20229;-74
2021/03/22 00:03:25;;;;;;;4.07;1.17;;;18.00;51.30;;;;;;4861421;29;20181;-70
2021/03/22 00:05:51;;;;;;;3.97;1.88;;;17.90;51.20;;;;;;4877845;29;20174;-72
2021/03/22 00:08:17;;;;;;;2.33;1.50;;;17.90;51.90;;;;;;4877331;29;20255;-70
2021/03/22 00:10:43;;;;;;;2.58;1.45;;;17.90;51.20;;;;;;4862013;29;20169;-72
2021/03/22 00:13:09;;;;;;;2.40;1.50;;;17.90;51.20;;;;;;4877682;29;20208;-70
2021/03/22 00:15:35;;;;;;;3.75;1.70;;;17.80;51.20;;;;;;4861317;29;20243;-68
2021/03/22 00:18:01;;;;;;;2.13;1.33;;;17.90;51.30;;;;;;4862128;29;20642;-69
2021/03/22 00:20:27;;;;;;;3.15;1.38;;;17.80;51.20;;;;;;4862197;29;20217;-68
2021/03/22 00:22:53;;;;;;;3.55;1.50;;;17.80;51.20;;;;;;4861454;29;20655;-73
2021/03/22 00:25:19;;;;;;;2.92;1.25;;;17.80;51.20;;;;;;4878588;29;20272;-69
2021/03/22 00:27:45;;;;;;;2.03;1.42;;;17.80;51.20;;;;;;4877645;29;20181;-69
2021/03/22 00:30:14;;;;;;;2.40;1.42;;;17.80;51.20;;;;;;4877044;29;20189;-68
2021/03/22 00:32:40;;;;;;;3.63;1.55;;;17.80;51.20;;;;;;4861730;29;20197;-69
2021/03/22 00:35:06;;;;;;;2.58;1.30;;;17.80;51.30;;;;;;4877446;29;20224;-72
2021/03/22 00:37:32;;;;;;;3.70;1.45;;;17.70;51.90;;;;;;4876765;29;20642;-71
2021/03/22 00:39:57;;;;;;;2.83;1.33;;;17.70;51.20;;;;;;4877448;29;20264;-69
2021/03/22 00:42:23;;;;;;;2.72;1.30;;;17.70;51.30;;;;;;4877264;29;20181;-68
2021/03/22 00:44:48;;;;;;;2.75;1.58;;;17.70;51.20;;;;;;4876945;29;20213;-69
2021/03/22 00:47:14;;;;;;;4.00;1.80;;;17.70;51.90;;;;;;4862181;29;20531;-68
2021/03/22 00:49:39;;;;;;;4.32;1.73;;;17.70;51.20;;;;;;4879407;29;20242;-68
2021/03/22 00:52:07;;;;;;;4.38;1.60;;;17.70;51.30;;;;;;4864828;29;20173;-68
2021/03/22 00:54:32;;;;;;;2.83;1.73;;;17.70;51.20;;;;;;4881836;29;20678;-68
2021/03/22 00:56:58;;;;;;;2.92;1.50;;;17.60;51.20;;;;;;4882017;29;20229;-68
2021/03/22 00:59:23;;;;;;;2.55;1.65;;;17.60;51.20;;;;;;4881217;29;20181;-68
2021/03/22 01:01:49;;;;;;;2.90;1.60;;;17.60;51.20;;;;;;4880898;29;20177;-74
2021/03/22 01:04:15;;;;;;;2.85;1.55;;;17.60;51.20;;;;;;4880758;29;20192;-70
2021/03/22 01:06:40;;;;;;;2.65;1.50;;;17.60;51.20;;;;;;4881132;29;20178;-69
2021/03/22 01:09:06;;;;;;;4.57;1.58;;;17.60;51.20;;;;;;4865182;29;20264;-72
2021/03/22 01:11:32;;;;;;;2.83;1.58;;;17.60;51.20;;;;;;4848762;29;20539;-70
2021/03/22 01:13:58;;;;;;;3.88;1.40;;;17.60;51.20;;;;;;4864946;29;20182;-71
2021/03/22 01:16:26;;;;;;;2.63;1.40;;;17.60;51.20;;;;;;4864867;29;20188;-68
2021/03/22 01:18:52;;;;;;;2.30;1.40;;;17.50;51.20;;;;;;4881152;29;20188;-70
2021/03/22 01:21:33;;;;;;;3.90;1.63;;;17.50;51.20;;;;;;4880583;29;20601;-69
2021/03/22 01:24:01;;;;;;;3.00;1.60;;;17.50;51.10;;;;;;4864826;29;20188;-69
2021/03/22 01:26:29;;;;;;;1.95;1.20;;;17.50;51.00;;;;;;4879649;29;20213;-68
2021/03/22 01:28:55;;;;;;;4.43;1.90;;;17.50;51.10;;;;;;4864842;29;20646;-68
2021/03/22 01:31:21;;;;;;;2.20;1.30;;;17.50;51.10;;;;;;4880235;29;20264;-74
2021/03/22 01:33:50;;;;;;;2.63;1.38;;;17.50;51.10;;;;;;4879629;29;20571;-72
2021/03/22 01:36:21;;;;;;;3.42;1.25;;;17.40;51.20;;;;;;4880289;29;20213;-72
2021/03/22 01:38:46;;;;;;;3.15;1.48;;;17.40;51.10;;;;;;4865266;29;20165;-70
2021/03/22 01:41:41;;;;;;;2.97;1.63;;;17.50;51.20;;;;;;4879645;29;20238;-74
2021/03/22 01:44:27;;;;;;;3.65;1.45;;;17.40;51.10;;;;;;4850021;29;20578;-68
2021/03/22 01:47:24;;;;;;;2.95;1.60;;;17.40;51.10;;;;;;4863857;29;20502;-68
2021/03/22 01:50:07;;;;;;;2.80;1.42;;;17.40;51.10;;;;;;4864608;29;20272;-69
2021/03/22 01:52:34;;;;;;;4.30;1.45;;;17.40;51.10;;;;;;4848750;29;20192;-68
2021/03/22 01:55:00;;;;;;;3.58;1.33;;;17.40;51.70;;;;;;4863728;29;20688;-69
2021/03/22 01:57:42;;;;;;;3.38;1.95;;;17.40;51.00;;;;;;4869426;29;20237;-75
2021/03/22 02:00:28;;;;;;;4.20;1.50;;;17.30;51.00;;;;;;4879537;29;20280;-69
2021/03/22 02:03:04;;;;;;;2.47;1.60;;;17.30;51.00;;;;;;4863847;29;20518;-75
2021/03/22 02:05:30;;;;;;;3.80;1.98;;;17.30;51.10;;;;;;4879303;29;20279;-72
2021/03/22 02:08:19;;;;;;;2.53;1.65;;;17.30;51.10;;;;;;4879087;29;20192;-72
2021/03/22 02:10:45;;;;;;;3.15;1.42;;;17.30;51.00;;;;;;4879936;29;20208;-72
2021/03/22 02:13:11;;;;;;;2.35;1.20;;;17.30;51.00;;;;;;4879569;29;20205;-70
2021/03/22 02:15:38;;;;;;;2.72;1.42;;;17.30;51.10;;;;;;4878529;29;20300;-70
2021/03/22 02:18:24;;;;;;;2.03;1.40;;;17.30;51.10;;;;;;4863901;29;20177;-72
2021/03/22 02:21:27;;;;;;;2.65;1.40;;;17.30;51.00;;;;;;4879422;29;20184;-69
2021/03/22 02:24:14;;;;;;;4.60;2.10;;;17.20;51.00;;;;;;4879683;29;20225;-70
2021/03/22 02:27:00;;;;;;;4.55;1.52;;;17.20;51.00;;;;;;4880325;29;20185;-68
2021/03/22 02:29:56;;;;;;;3.47;1.23;;;17.20;51.00;;;;;;4879683;29;20212;-69
2021/03/22 02:32:41;;;;;;;2.83;1.48;;;17.20;51.00;;;;;;4878984;29;20634;-70
2021/03/22 02:35:13;;;;;;;4.60;1.80;;;17.20;51.00;;;;;;4879077;29;20209;-72
2021/03/22 02:37:53;;;;;;;2.35;1.38;;;17.20;51.00;;;;;;4878353;29;20563;-70
2021/03/22 02:40:37;;;;;;;4.10;1.80;;;17.20;51.00;;;;;;4878858;29;20184;-69
2021/03/22 02:43:03;;;;;;;2.33;1.55;;;17.20;51.00;;;;;;4878447;29;20178;-69
2021/03/22 02:45:34;;;;;;;2.78;1.55;;;17.20;51.00;;;;;;4878746;29;20252;-70
2021/03/22 02:48:00;;;;;;;2.67;1.35;;;17.20;51.00;;;;;;4878905;29;20185;-70
2021/03/22 02:50:31;;;;;;;4.13;1.50;;;17.10;51.60;;;;;;4862496;29;20181;-69
2021/03/22 02:53:19;;;;;;;3.42;1.58;;;17.10;51.00;;;;;;4878946;29;20197;-75
2021/03/22 02:56:05;;;;;;;1.67;1.20;;;17.20;51.00;;;;;;4878474;29;20212;-69
2021/03/22 02:58:33;;;;;;;2.17;1.33;;;17.10;51.10;;;;;;4877618;29;20273;-70
2021/03/22 03:01:05;;;;;;;2.83;1.40;;;17.10;51.00;;;;;;4863279;29;20189;-72
2021/03/22 03:03:31;;;;;;;3.50;1.50;;;17.10;51.10;;;;;;4863100;29;20662;-71
2021/03/22 03:05:57;;;;;;;3.00;1.50;;;17.10;51.00;;;;;;4862710;29;20169;-75
2021/03/22 03:08:36;;;;;;;3.50;1.50;;;17.10;51.00;;;;;;4862667;29;20642;-72
2021/03/22 03:11:02;;;;;;;1.80;1.25;;;17.10;51.00;;;;;;4846941;29;20185;-71
2021/03/22 03:13:27;;;;;;;2.97;1.40;;;17.10;51.00;;;;;;4877734;29;20203;-70
2021/03/22 03:15:53;;;;;;;2.40;1.75;;;17.10;51.10;;;;;;4878473;29;20217;-71
2021/03/22 03:18:19;;;;;;;3.08;1.50;;;17.00;51.00;;;;;;4877653;29;20193;-69
2021/03/22 03:20:44;;;;;;;4.18;1.70;;;17.00;51.00;;;;;;4862845;29;20642;-68
2021/03/22 03:23:10;;;;;;;2.67;1.40;;;17.00;51.60;;;;;;4862814;29;20177;-69
2021/03/22 03:25:35;;;;;;;2.22;1.23;;;17.00;51.00;;;;;;4877404;29;20582;-68
2021/03/22 03:28:01;;;;;;;1.80;1.25;;;17.00;51.10;;;;;;4879726;29;20205;-68
2021/03/22 03:30:29;;;;;;;3.72;2.25;;;17.00;51.00;;;;;;4877969;29;20197;-69
2021/03/22 03:32:55;;;;;;;4.28;1.70;;;17.00;51.00;;;;;;4861888;29;20181;-73
2021/03/22 03:35:22;;;;;;;3.70;1.60;;;17.00;51.00;;;;;;4862451;29;20295;-71
2021/03/22 03:37:48;;;;;;;3.63;1.60;;;17.00;51.00;;;;;;4862672;29;20189;-71
2021/03/22 03:40:19;;;;;;;2.20;1.50;;;17.00;51.00;;;;;;4878629;29;20247;-69
2021/03/22 03:42:45;;;;;;;2.65;1.55;;;17.00;51.00;;;;;;4862673;29;20191;-68
2021/03/22 03:45:12;;;;;;;2.70;1.83;;;17.00;51.70;;;;;;4877999;29;20177;-69
2021/03/22 03:47:41;;;;;;;2.17;1.65;;;16.90;51.00;;;;;;4861695;29;20532;-68
2021/03/22 03:50:09;;;;;;;3.65;1.83;;;17.00;51.00;;;;;;4877863;29;20188;-68
2021/03/22 03:52:35;;;;;;;2.28;1.35;;;16.90;51.00;;;;;;4862116;29;20217;-68
2021/03/22 03:55:00;;;;;;;2.90;1.55;;;16.90;51.00;;;;;;4878393;29;20240;-72
2021/03/22 03:57:26;;;;;;;2.28;1.38;;;16.90;51.00;;;;;;4861952;29;20704;-74
2021/03/22 03:59:51;;;;;;;2.30;1.50;;;16.90;51.00;;;;;;4862544;29;20174;-72
2021/03/22 04:02:17;;;;;;;2.53;1.38;;;16.90;51.00;;;;;;4877416;29;20269;-70
2021/03/22 04:04:42;;;;;;;2.35;1.38;;;16.90;51.00;;;;;;4878848;29;20177;-71
2021/03/22 04:07:08;;;;;;;2.42;2.03;;;16.90;51.10;;;;;;4877834;29;20189;-72
2021/03/22 04:09:34;;;;;;;2.22;1.88;;;16.90;51.00;;;;;;4878236;29;20226;-71
2021/03/22 04:11:59;;;;;;;3.90;1.48;;;16.90;51.00;;;;;;4878938;29;20693;-69
2021/03/22 04:14:26;;;;;;;3.45;1.77;;;16.90;51.00;;;;;;4878069;29;20238;-70
2021/03/22 04:16:52;;;;;;;2.70;1.35;;;16.90;51.10;;;;;;4877674;29;20174;-69
2021/03/22 04:19:18;;;;;;;1.98;1.38;;;16.80;51.10;;;;;;4877799;29;20277;-69
2021/03/22 04:21:44;;;;;;;3.45;1.70;;;16.90;51.10;;;;;;4878225;29;20177;-70
2021/03/22 04:24:10;;;;;;;3.42;1.50;;;16.90;51.10;;;;;;4879297;29;20256;-68
2021/03/22 04:26:36;;;;;;;2.30;1.58;;;16.90;51.10;;;;;;4865811;29;20593;-68
2021/03/22 04:29:01;;;;;;;3.88;1.75;;;16.90;51.10;;;;;;4882098;29;20589;-74
2021/03/22 04:31:27;;;;;;;3.15;1.83;;;16.80;51.10;;;;;;4850201;29;20183;-73
2021/03/22 04:33:53;;;;;;;2.00;1.50;;;16.80;51.00;;;;;;4865662;29;20260;-73
2021/03/22 04:36:24;;;;;;;2.17;1.67;;;16.80;51.00;;;;;;4849529;29;20220;-71
2021/03/22 04:38:49;;;;;;;2.30;1.70;;;16.80;51.10;;;;;;4865621;29;20173;-70
2021/03/22 04:41:15;;;;;;;2.22;1.50;;;16.80;51.10;;;;;;4882402;29;20184;-70
2021/03/22 04:43:41;;;;;;;3.15;1.50;;;16.80;51.10;;;;;;4880413;29;20177;-70
2021/03/22 04:46:07;;;;;;;2.08;1.58;;;16.80;51.10;;;;;;4882368;29;20582;-68
2021/03/22 04:48:33;;;;;;;2.15;1.27;;;16.80;51.10;;;;;;4880852;29;20221;-68
2021/03/22 04:50:58;;;;;;;2.40;1.67;;;16.80;51.10;;;;;;4881558;29;20185;-68
2021/03/22 04:53:24;;;;;;;3.28;1.52;;;16.70;51.10;;;;;;4865254;29;20653;-68
2021/03/22 04:55:49;;;;;;;2.78;1.77;;;16.80;51.10;;;;;;4880844;29;20285;-70
2021/03/22 04:58:15;;;;;;;2.92;1.77;;;16.70;51.10;;;;;;4880264;29;20233;-69
2021/03/22 05:00:44;;;;;;;2.65;1.88;;;16.70;51.00;;;;;;4881843;29;20173;-70
2021/03/22 05:03:12;;;;;;;2.80;1.55;;;16.70;51.10;;;;;;4880880;29;20181;-71
2021/03/22 05:05:38;;;;;;;3.08;1.92;;;16.70;51.10;;;;;;4879979;29;20201;-72
2021/03/22 05:08:04;;;;;;;4.13;1.70;;;16.70;51.10;;;;;;4880777;29;20204;-71
2021/03/22 05:10:34;;;;;;;2.72;1.70;;;16.70;51.10;;;;;;4849045;29;20188;-70
2021/03/22 05:13:00;;;;;;;2.58;1.63;;;16.70;51.20;;;;;;4880631;29;20185;-69
2021/03/22 05:15:26;;;;;;;2.40;1.73;;;16.70;51.30;;;;;;4880126;29;20708;-69
2021/03/22 05:17:51;;;;;;;3.13;1.70;;;16.70;51.20;;;;;;4880077;29;20256;-69
2021/03/22 05:20:27;;;;;;;3.40;1.70;;;16.70;51.10;;;;;;4865023;29;20181;-69
2021/03/22 05:22:53;;;;;;;2.58;1.38;;;16.70;51.10;;;;;;4881729;29;20177;-69
2021/03/22 05:25:19;;;;;;;2.42;1.52;;;16.70;51.20;;;;;;4864097;29;20185;-68
2021/03/22 05:27:45;;;;;;;2.50;1.83;;;16.70;51.10;;;;;;4849557;29;20205;-68
2021/03/22 05:30:11;;;;;;;5.45;2.33;;;16.70;51.10;;;;;;4880436;29;20208;-69
2021/03/22 05:32:37;;;;;;;1.98;1.60;;;16.60;51.10;;;;;;4864229;29;20173;-72
2021/03/22 05:35:05;;;;;;;2.65;1.60;;;16.60;51.10;;;;;;4879547;29;20493;-71
2021/03/22 05:37:31;;;;;;;2.70;1.60;;;16.60;51.10;;;;;;4880125;29;20177;-71
2021/03/22 05:39:57;;;;;;;3.42;2.10;;;16.60;51.10;;;;;;4864009;29;20189;-69
2021/03/22 05:42:39;;;;;;;3.08;2.00;;;16.60;51.10;;;;;;4849015;29;20515;-69
2021/03/22 05:45:17;;;;;;;2.38;1.60;;;16.60;51.10;;;;;;4849009;29;20260;-68
2021/03/22 05:47:52;;;;;;;2.58;1.92;;;16.60;51.10;;;;;;4863669;29;20183;-68
2021/03/22 05:50:26;;;;;;;2.47;1.83;;;16.60;51.10;;;;;;4864517;29;20276;-68
2021/03/22 05:52:54;;;;;;;2.53;1.98;;;16.60;51.10;;;;;;4863904;29;20201;-71
2021/03/22 05:55:32;;;;;;;3.97;1.90;;;16.60;51.20;;;;;;4880755;29;20299;-68
2021/03/22 05:58:29;;;;;;;3.20;1.90;;;16.60;51.10;;;;;;4879646;29;20565;-73
2021/03/22 06:01:23;;;;;;;2.83;1.80;;;16.60;51.20;;;;;;4879605;29;20181;-69
2021/03/22 06:03:54;;;;;;;3.78;1.88;;;16.60;51.20;;;;;;4859591;29;20193;-71
2021/03/22 06:06:33;;;;;;;2.28;1.50;;;16.50;51.20;;;;;;4864057;29;20681;-70
2021/03/22 06:09:01;;;;;;;3.88;1.77;;;16.60;51.20;;;;;;4863713;29;20185;-70
2021/03/22 06:11:40;;;;;;;2.05;1.52;;;16.60;51.20;;;;;;4880445;29;20549;-69
2021/03/22 06:14:14;;;;;;;2.63;1.63;;;16.60;51.30;;;;;;4878971;29;20256;-72
2021/03/22 06:16:46;;;;;;;2.47;1.48;;;16.80;51.40;;;;;;4879252;29;20625;-68
2021/03/22 06:19:14;;;;;;;1.92;1.45;;;17.00;51.00;;;;;;4848529;29;20173;-72
2021/03/22 06:21:42;;;;;;;2.60;1.80;;;17.10;50.90;;;;;;4878548;29;20264;-69
2021/03/22 06:24:16;;;;;;;1.67;1.58;;;17.40;50.50;;;;;;4863745;29;20173;-70
2021/03/22 06:26:49;;;;;;;1.98;1.30;;;17.60;50.30;;;;;;4879121;29;20183;-68
2021/03/22 06:29:17;;;;;;;2.90;1.80;;;17.90;50.00;;;;;;4878837;29;20166;-69
2021/03/22 06:31:43;;;;;;;2.10;1.48;;;18.00;49.60;;;;;;4879068;29;20545;-70
2021/03/22 06:34:10;;;;;;;2.53;1.45;;;18.20;49.20;;;;;;4848072;29;20181;-73
2021/03/22 06:36:35;;;;;;;2.00;1.60;;;18.40;48.80;;;;;;4862863;29;20185;-71
2021/03/22 06:39:04;;;;;;;2.53;1.73;;;18.50;48.70;;;;;;4879080;29;20264;-69
2021/03/22 06:41:38;;;;;;;1.50;1.33;;;18.60;48.50;;;;;;4863314;29;20537;-68
2021/03/22 06:44:10;;;;;;;2.72;1.23;;;18.60;48.30;;;;;;4879407;29;20201;-68
2021/03/22 06:46:59;;;;;;;3.75;1.52;;;18.70;48.90;;;;;;4862762;29;20173;-67
2021/03/22 06:49:36;;;;;;;1.88;1.52;;;18.80;48.80;;;;;;4878159;29;20165;-75
2021/03/22 06:52:09;;;;;;;1.75;1.50;;;18.80;48.20;;;;;;4879090;29;20600;-68
2021/03/22 06:54:40;;;;;;;1.77;1.30;;;18.70;48.30;;;;;;4863128;29;20645;-76
2021/03/22 06:57:19;;;;;;;2.13;1.27;;;18.80;48.30;;;;;;4866203;29;20225;-75
2021/03/22 07:00:06;;;;;;;1.40;1.30;;;18.80;48.30;;;;;;4879233;29;20209;-72
2021/03/22 07:02:40;;;;;;;2.65;1.48;;;18.80;48.30;;;;;;4878492;29;20177;-74
2021/03/22 07:05:28;;;;;;;2.08;1.67;;;18.80;48.30;;;;;;4878104;29;20536;-71
2021/03/22 07:08:08;;;;;;;2.42;1.42;;;18.80;48.30;;;;;;4873114;29;20403;-72
2021/03/22 07:10:39;;;;;;;4.60;1.75;;;18.90;48.30;;;;;;4877674;29;20169;-66
2021/03/22 07:13:20;;;;;;;4.32;1.50;;;18.90;48.50;;;;;;4879691;29;20672;-71
2021/03/22 07:15:46;;;;;;;4.32;1.90;;;18.90;48.60;;;;;;4878616;29;20269;-69
2021/03/22 07:18:16;;;;;;;3.47;1.75;;;18.80;49.00;;;;;;4877708;29;20178;-73
2021/03/22 07:20:49;;;;;;;2.13;1.58;;;18.70;49.10;;;;;;4878155;29;20606;-73
2021/03/22 07:23:26;;;;;;;4.70;2.00;;;18.60;49.30;;;;;;4879568;29;20653;-74
2021/03/22 07:26:21;;;;;;;5.28;1.90;;;18.50;49.60;;;;;;4878809;29;20181;-74
2021/03/22 07:29:00;;;;;;;3.13;1.80;;;18.50;49.80;;;;;;4875697;29;20242;-74
2021/03/22 07:32:01;;;;;;;3.53;1.73;;;18.50;49.90;;;;;;4877497;29;20229;-75
2021/03/22 07:35:04;;;;;;;2.55;1.80;;;18.40;50.00;;;;;;4877961;29;20264;-65
2021/03/22 07:37:51;;;;;;;4.63;1.60;;;18.30;50.00;;;;;;4862344;29;20641;-74
2021/03/22 07:40:41;;;;;;;5.03;2.00;;;18.20;50.20;;;;;;4878483;29;20177;-64
2021/03/22 07:43:22;;;;;;;3.47;1.48;;;18.20;50.50;;;;;;4878205;29;20233;-76
2021/03/22 07:46:02;;;;;;;3.42;1.52;;;18.20;50.70;;;;;;4878672;29;20200;-65
2021/03/22 07:48:40;;;;;;;3.15;1.80;;;18.10;50.60;;;;;;4877787;29;20559;-74
2021/03/22 07:51:14;;;;;;;5.07;1.80;;;18.20;50.50;;;;;;4879141;29;20169;-72
2021/03/22 07:54:09;;;;;;;4.38;1.70;;;18.10;50.60;;;;;;4878256;29;20181;-72
2021/03/22 07:56:41;;;;;;;2.85;1.80;;;18.10;50.60;;;;;;4846473;29;20209;-68
2021/03/22 07:59:34;;;;;;;3.10;2.00;;;18.10;50.60;;;;;;4878617;29;20230;-75
2021/03/22 08:02:49;;;;;;;2.55;1.90;;;18.10;50.70;;;;;;4878928;29;20181;-72
2021/03/22 08:05:21;;;;;;;2.25;1.75;;;18.10;50.70;;;;;;4812270;29;20225;-72
2021/03/22 08:07:49;;;;;;;3.17;2.08;;;18.10;51.00;;;;;;4878531;29;20208;-71
2021/03/22 08:10:49;;;;;;;1.75;1.40;;;18.10;50.90;;;;;;4877922;29;20602;-64
2021/03/22 08:13:30;;;;;;;3.35;1.30;;;18.10;50.90;;;;;;4876861;29;20197;-73
2021/03/22 08:16:05;;;;;;;4.55;1.67;;;18.00;50.90;;;;;;4878749;29;20209;-69
2021/03/22 08:18:50;;;;;;;4.15;1.83;;;18.00;50.90;;;;;;4877454;29;20225;-65
2021/03/22 08:21:24;;;;;;;3.63;1.65;;;17.90;50.90;;;;;;4878204;29;20183;-73
2021/03/22 08:24:19;;;;;;;2.15;1.40;;;17.90;51.10;;;;;;4877585;29;20668;-64
2021/03/22 08:27:10;;;;;;;2.15;1.30;;;17.90;51.10;;;;;;4862133;29;20225;-73
2021/03/22 08:29:36;;;;;;;3.58;1.92;;;17.80;51.20;;;;;;4877884;29;20184;-63
2021/03/22 08:32:39;;;;;;;4.38;1.50;;;17.80;51.20;;;;;;4862008;29;20181;-73
2021/03/22 08:35:18;;;;;;;3.35;1.60;;;17.80;51.90;;;;;;4876722;29;20705;-70
2021/03/22 08:37:54;;;;;;;2.55;1.50;;;17.90;51.20;;;;;;4862028;29;20170;-72
2021/03/22 08:40:45;;;;;;;2.25;1.80;;;18.00;51.10;;;;;;4877206;29;20253;-74
2021/03/22 08:43:36;;;;;;;3.20;1.50;;;18.00;51.00;;;;;;4877237;29;20173;-75
2021/03/22 08:46:05;;;;;;;3.33;1.50;;;18.10;50.90;;;;;;4857372;29;20558;-74
2021/03/22 08:48:31;;;;;;;2.35;1.52;;;18.20;50.80;;;;;;4877067;29;20184;-75
2021/03/22 08:51:01;;;;;;;2.38;1.38;;;18.20;50.80;;;;;;4877990;29;20170;-73
2021/03/22 08:53:38;;;;;;;3.72;1.50;;;18.20;50.80;;;;;;4861737;29;20264;-74
2021/03/22 08:56:21;;;;;;;3.83;1.55;;;18.20;50.70;;;;;;4861339;29;20217;-75
2021/03/22 08:58:47;;;;;;;2.72;1.33;;;18.20;50.80;;;;;;4875274;29;20228;-74
2021/03/22 09:01:28;;;;;;;2.88;1.60;;;18.10;51.00;;;;;;4877658;29;20174;-69
2021/03/22 09:03:56;;;;;;;1.63;1.10;;;18.10;51.20;;;;;;4877727;29;20257;-73
2021/03/22 09:06:24;;;;;;;2.65;1.40;;;18.00;51.20;;;;;;4877175;29;20589;-76
2021/03/22 09:08:49;;;;;;;2.50;1.50;;;18.00;51.20;;;;;;4877377;29;20661;-72
2021/03/22 09:11:27;;;;;;;2.72;1.60;;;18.00;51.20;;;;;;4879529;29;20183;-72
2021/03/22 09:14:11;;;;;;;2.88;1.45;;;18.00;51.10;;;;;;4881732;29;20205;-72
2021/03/22 09:16:41;;;;;;;2.42;1.20;;;18.10;51.10;;;;;;4881721;29;20189;-72
2021/03/22 09:19:09;;;;;;;2.03;1.40;;;18.00;51.10;;;;;;4881543;29;20641;-73
2021/03/22 09:21:39;;;;;;;2.50;1.30;;;18.00;51.10;;;;;;4881537;29;20181;-73
2021/03/22 09:24:45;;;;;;;2.65;1.40;;;18.00;51.10;;;;;;4880642;29;20171;-67
2021/03/22 09:27:13;;;;;;;2.70;1.55;;;18.10;51.10;;;;;;4881582;29;20704;-74
2021/03/22 09:29:51;;;;;;;1.65;1.27;;;18.20;51.00;;;;;;4881276;29;20268;-73
2021/03/22 09:32:23;;;;;;;1.73;1.30;;;18.30;51.00;;;;;;4880932;29;20268;-74
2021/03/22 09:34:49;;;;;;;2.50;0.95;;;18.20;51.00;;;;;;4881140;29;20209;-70
2021/03/22 09:37:45;;;;;;;1.33;1.13;;;18.20;51.00;;;;;;4880464;29;20260;-73
2021/03/22 09:40:29;;;;;;;2.40;1.33;;;18.10;51.00;;;;;;4879760;29;20200;-71
2021/03/22 09:45:36;;;;;;;1.92;1.17;;;17.90;51.20;;;;;;4880549;29;20656;-76
2021/03/22 09:48:23;;;;;;;2.78;1.30;;;17.90;51.30;;;;;;4879960;29;20211;-73
2021/03/22 09:51:04;;;;;;;1.77;0.93;;;17.90;51.40;;;;;;4864341;29;20196;-71
2021/03/22 09:53:41;;;;;;;2.67;1.60;;;17.80;51.30;;;;;;4880157;29;20177;-75
2021/03/22 09:56:08;;;;;;;3.10;1.23;;;17.80;51.40;;;;;;4879672;29;20232;-75
2021/03/22 09:58:46;;;;;;;2.20;1.15;;;17.80;51.40;;;;;;4879514;29;20229;-74
2021/03/22 10:01:35;;;;;;;1.65;1.30;;;17.80;51.40;;;;;;4879181;29;20169;-74
2021/03/22 10:04:20;;;;;;;1.67;1.23;;;17.80;51.50;;;;;;4880809;29;20192;-72
2021/03/22 10:06:51;;;;;;;1.90;1.20;;;17.70;51.50;;;;;;4880328;29;20229;-72
2021/03/22 10:09:27;;;;;;;1.65;1.13;;;17.70;51.60;;;;;;4879840;29;20185;-73
2021/03/22 10:11:54;;;;;;;3.13;1.30;;;17.70;51.60;;;;;;4879567;29;20238;-72
2021/03/22 10:14:42;;;;;;;1.38;1.10;;;17.60;52.30;;;;;;4878508;29;20231;-63
2021/03/22 10:17:24;;;;;;;3.30;1.27;;;17.60;51.70;;;;;;4864235;29;20228;-67
2021/03/22 10:19:49;;;;;;;1.80;0.90;;;17.60;51.70;;;;;;4879363;29;20183;-65
2021/03/22 10:22:19;;;;;;;2.38;1.15;;;17.60;51.70;;;;;;4878712;29;20181;-70
2021/03/22 10:24:59;;;;;;;1.20;1.10;;;17.70;51.70;;;;;;4863628;29;20594;-64
2021/03/22 10:27:33;;;;;;;1.63;0.90;;;17.70;51.60;;;;;;4879722;29;20169;-63
2021/03/22 10:30:12;;;;;;;0.98;0.90;;;17.70;51.60;;;;;;4879290;29;20181;-70
2021/03/22 10:32:39;;;;;;;1.40;0.88;;;17.70;51.50;;;;;;4863569;29;21253;-72
2021/03/22 10:35:20;;;;;;;1.30;0.98;;;17.70;51.60;;;;;;4878589;29;20693;-74
2021/03/22 10:37:46;;;;;;;1.65;0.80;;;17.70;51.50;;;;;;4879183;29;20221;-67
2021/03/22 10:40:35;;;;;;;1.55;1.02;;;17.70;51.60;;;;;;4879082;29;20178;-75
2021/03/22 10:43:01;;;;;;;1.10;0.95;;;17.70;51.60;;;;;;4878400;29;20170;-64
2021/03/22 10:45:31;;;;;;;1.65;1.05;;;17.70;51.60;;;;;;4878682;29;20173;-75
2021/03/22 10:47:58;;;;;;;2.15;1.08;;;17.70;51.60;;;;;;4878962;29;20177;-66
2021/03/22 10:50:29;;;;;;;1.10;1.00;;;17.70;51.60;;;;;;4877962;29;20189;-74
2021/03/22 10:53:21;;;;;;;1.42;1.02;;;17.70;51.60;;;;;;4879944;29;20173;-64
2021/03/22 10:55:48;;;;;;;1.13;0.93;;;18.00;51.30;;;;;;4877570;29;20323;-64
2021/03/22 10:58:28;;;;;;;1.23;0.82;;;18.10;51.10;;;;;;4878627;29;20246;-74
2021/03/22 11:01:04;;;;;;;1.13;0.80;;;18.20;50.90;;;;;;4878691;29;20188;-67
2021/03/22 11:03:30;;;;;;;1.50;1.15;;;18.10;50.90;;;;;;4877938;29;20637;-74
2021/03/22 11:05:56;;;;;;;1.40;1.02;;;18.00;51.00;;;;;;4878658;29;20173;-69
2021/03/22 11:08:33;;;;;;;1.77;0.90;;;18.00;51.10;;;;;;4878393;29;20653;-70
2021/03/22 11:11:08;;;;;;;2.13;1.08;;;17.90;51.30;;;;;;4878013;29;20195;-67
2021/03/22 11:13:38;;;;;;;1.02;0.80;;;17.90;51.40;;;;;;4862524;29;20628;-68
2021/03/22 11:16:07;;;;;;;0.85;0.85;;;17.90;51.40;;;;;;4878272;29;20292;-63
2021/03/22 11:18:32;;;;;;;1.13;1.02;;;17.90;51.40;;;;;;4877459;29;20183;-69
2021/03/22 11:20:58;;;;;;;1.52;1.00;;;17.80;51.40;;;;;;4862792;29;20267;-63
2021/03/22 11:23:34;;;;;;;1.40;0.90;;;17.80;51.40;;;;;;4861995;29;20244;-63
2021/03/22 11:26:25;;;;;;;1.42;0.70;;;17.80;51.50;;;;;;4862293;29;20195;-63
2021/03/22 11:28:53;;;;;;;1.65;1.00;;;17.70;51.50;;;;;;4878343;29;20773;-70
2021/03/22 11:31:25;;;;;;;1.38;1.10;;;17.70;51.50;;;;;;4862051;29;20184;-62
2021/03/22 11:34:02;;;;;;;0.98;0.90;;;17.70;51.50;;;;;;4861852;29;20181;-68
2021/03/22 11:36:37;;;;;;;1.55;1.05;;;17.70;51.60;;;;;;4877729;29;20356;-64
2021/03/22 11:39:19;;;;;;;1.58;0.70;;;17.70;51.60;;;;;;4861961;29;20547;-63
2021/03/22 11:41:54;;;;;;;2.38;1.00;;;17.70;51.60;;;;;;4878067;29;20181;-62
2021/03/22 11:44:35;;;;;;;2.83;1.02;;;17.70;51.60;;;;;;4878746;29;20560;-63
2021/03/22 11:47:26;;;;;;;4.53;1.00;;;17.70;51.70;;;;;;4878836;29;20297;-73
2021/03/22 11:49:52;;;;;;;2.58;0.90;;;17.70;51.70;;;;;;4878971;29;20233;-71
2021/03/22 11:52:22;;;;;;;2.38;0.98;;;17.70;51.70;;;;;;4885322;29;20269;-70
2021/03/22 11:54:53;;;;;;;3.22;1.20;;;17.70;51.60;;;;;;4894979;29;20222;-64
2021/03/22 11:57:22;;;;;;;2.15;0.90;;;17.70;51.60;;;;;;4873714;29;20228;-63
2021/03/22 12:00:09;;;;;;;2.88;1.00;;;17.70;51.70;;;;;;4887106;29;20176;-65
2021/03/22 12:02:46;;;;;;;2.83;0.88;;;17.80;51.80;;;;;;4893671;29;20569;-66
2021/03/22 12:05:33;;;;;;;2.92;0.98;;;17.80;51.80;;;;;;4896331;29;20172;-73
2021/03/22 12:07:58;;;;;;;2.83;1.00;;;17.90;51.80;;;;;;4880658;29;20169;-72
2021/03/22 12:10:29;;;;;;;1.70;0.82;;;17.90;51.80;;;;;;4896075;29;20260;-70
2021/03/22 12:12:59;;;;;;;3.38;1.10;;;18.00;51.90;;;;;;4880195;29;20217;-65
2021/03/22 12:15:25;;;;;;;2.72;0.98;;;18.00;51.80;;;;;;4880339;29;20247;-67
2021/03/22 12:18:16;;;;;;;1.42;0.70;;;18.00;51.70;;;;;;4896218;29;20204;-64
2021/03/22 12:20:42;;;;;;;4.05;1.02;;;18.00;51.80;;;;;;4895318;29;20204;-67
2021/03/22 12:23:08;;;;;;;3.15;0.73;;;17.90;51.80;;;;;;4896171;29;20267;-63
2021/03/22 12:25:36;;;;;;;3.08;0.85;;;17.90;51.70;;;;;;4895789;29;20176;-63
2021/03/22 12:28:02;;;;;;;1.85;1.02;;;17.90;51.90;;;;;;4880326;29;20168;-63
2021/03/22 12:30:28;;;;;;;2.10;0.88;;;18.00;51.90;;;;;;4896083;29;20172;-70
2021/03/22 12:32:54;;;;;;;3.42;0.85;;;18.10;51.80;;;;;;4896010;29;20674;-68
2021/03/22 12:35:31;;;;;;;2.80;0.80;;;18.10;51.80;;;;;;4895148;29;20244;-64
2021/03/22 12:37:56;;;;;;;3.33;0.98;;;18.00;51.70;;;;;;4880713;29;20299;-67
2021/03/22 12:40:22;;;;;;;1.08;0.70;;;18.00;51.70;;;;;;4880627;29;20181;-71
2021/03/22 12:42:48;;;;;;;1.15;0.80;;;18.10;51.80;;;;;;4879945;29;20515;-69
2021/03/22 12:45:21;;;;;;;1.42;0.70;;;18.00;51.70;;;;;;4898849;29;20177;-77
2021/03/22 12:47:46;;;;;;;0.65;0.60;;;18.00;51.60;;;;;;4899287;29;20632;-68
2021/03/22 12:50:27;;;;;;;1.23;0.73;;;18.00;51.50;;;;;;4884164;29;20188;-69
2021/03/22 12:52:53;;;;;;;1.90;0.60;;;18.00;51.60;;;;;;4900996;29;20259;-67
2021/03/22 12:55:20;;;;;;;1.90;0.80;;;18.00;51.50;;;;;;4883167;29;20347;-68
2021/03/22 12:57:46;;;;;;;1.27;0.70;;;18.00;51.50;;;;;;4884246;29;20224;-77
2021/03/22 13:00:13;;;;;;;2.97;0.82;;;18.00;51.40;;;;;;4883911;29;20176;-78
2021/03/22 13:02:40;;;;;;;0.70;0.70;;;17.90;51.30;;;;;;4867977;29;20184;-77
2021/03/22 13:05:22;;;;;;;1.60;0.80;;;18.00;51.40;;;;;;4884005;29;20681;-76
2021/03/22 13:07:47;;;;;;;2.00;0.90;;;18.00;51.40;;;;;;4868874;29;20380;-68
2021/03/22 13:10:15;;;;;;;1.20;0.50;;;17.90;51.30;;;;;;4867772;29;20733;-67
2021/03/22 13:12:41;;;;;;;0.82;0.70;;;17.90;51.40;;;;;;4883730;29;20271;-76
2021/03/22 13:15:09;;;;;;;1.70;1.00;;;17.80;51.40;;;;;;4883653;29;20276;-68
2021/03/22 13:17:35;;;;;;;0.93;0.60;;;17.90;51.50;;;;;;4883363;29;20184;-73
2021/03/22 13:20:01;;;;;;;1.52;0.60;;;17.90;51.40;;;;;;4883812;29;20173;-69